Erieau, Canada
Current Conditions -  °F | °C
As of 3:00 PM on Friday 28 Nov 2014 (Local Time) from CYCK Reporting Station
Overcast Overcast  
Wind Chill: 15°   Ceiling: 2800
Heat Index: 27°   Visibility: 9mi
Dew Point: 18°   Wind: 15mph
Humidity: 69%   Direction: 230°SW
Pressure: 30.23"   Gusts: NA
Location:  42.25°N, 81.92°W
Report Text: CYCK 282000Z AUTO 23013KT 9SM OVC028 M03/M08 A3023 RMK SLP246
Loading
Personal Weather Stations






























Interactive Weather Map New forecast layout! Learn more

10-Day Weather Forecast

Advertisements
Track Severe Weather on mobile